Latest Weather Observations for Frederick Reef

IDQ60801

Issued at 7:35 pm EST Thursday 17 April 2014 (issued every 30 minutes, with the page automatically refreshed every 10 minutes)

About weather observations | Map of weather stations | Latest weather observations for QLD | Other Formats
Station Details ID: 200701 Name: FREDERICK REEF Lat: -20.94 Lon: 154.40 Height: 4.9 m
Data from the previous 72 hours. | See also: Recent months for locations in Queensland
Date/Time
EST
Temp
°C
App
Temp
°C
Dew
Point
Rel
Hum
%
Delta-T
°C
Wind Press
QNH
hPa
Press
MSL
hPa
Rain
since 9 am
mm
Dir
 
Spd
km/h
Gust
km/h
Spd
kts
Gust
kts
17/07:30pm 25.3 - - - - SSE 32 35 17 19 1016.1 - -
17/07:00pm 25.2 - - - - SSE 33 37 18 20 1015.6 1015.5 -
17/06:30pm 25.1 - - - - SSE 32 35 17 19 1015.3 - -
17/06:00pm 25.2 - - - - SSE 32 39 17 21 1014.9 1014.6 -
17/05:30pm 25.2 - - - - SSE 33 41 18 22 1014.6 - -
17/05:00pm 25.2 - - - - SSE 33 39 18 21 1014.4 1014.1 -
17/04:30pm 25.3 - - - - S 35 39 19 21 1014.1 - -
17/04:00pm 25.5 - - - - SSE 35 43 19 23 1013.9 1013.6 -
17/03:30pm 25.3 - - - - SSE 37 41 20 22 1013.6 - -
17/03:00pm 25.5 - - - - S 35 43 19 23 1013.6 1013.4 -
17/02:30pm 25.4 - - - - S 33 37 18 20 1013.8 - -
17/02:00pm 25.3 - - - - SSE 30 35 16 19 1014.0 1013.6 -
17/01:30pm 25.2 - - - - S 28 33 15 18 1014.2 - -
17/01:00pm 25.3 - - - - S 30 35 16 19 1014.2 1014.0 -
17/12:30pm 25.3 - - - - SSE 30 35 16 19 1014.6 - -
17/12:00pm 25.2 - - - - SSE 28 35 15 19 1014.8 1014.5 -
17/11:30am 25.2 - - - - SSE 32 35 17 19 1015.3 - -
17/11:00am 25.2 - - - - SSE 28 32 15 17 1015.8 1015.5 -
17/10:30am 25.3 - - - - SSE 28 33 15 18 1016.2 - -
17/10:00am 25.4 - - - - SSE 30 35 16 19 1016.3 1016.0 -
17/09:30am 25.4 - - - - SSE 32 37 17 20 1016.4 - -
17/09:00am 25.3 - - - - SSE 28 32 15 17 1016.5 1016.2 -
17/08:30am 25.1 - - - - SSE 30 35 16 19 1016.5 - -
17/08:00am 25.0 - - - - SSE 30 35 16 19 1016.3 1016.0 -
17/07:30am 25.0 - - - - SSE 28 32 15 17 1016.1 - -
17/07:00am 25.0 - - - - SSE 26 30 14 16 1015.8 1015.5 -
17/06:30am 25.0 - - - - SSE 30 33 16 18 1015.3 - -
17/06:00am 24.9 - - - - SSE 28 33 15 18 1015.0 1014.8 -
17/05:30am 25.0 - - - - SE 28 32 15 17 1014.7 - -
17/05:00am 24.8 - - - - SE 28 35 15 19 1014.4 1014.1 -
17/04:30am 24.8 - - - - SSE 26 28 14 15 1014.3 - -
17/04:00am 24.9 - - - - SE 28 32 15 17 1014.1 1013.9 -
17/03:30am 24.8 - - - - SSE 26 30 14 16 1014.3 - -
17/03:00am 24.9 - - - - SE 28 32 15 17 1014.3 1014.0 -
17/02:30am 24.9 - - - - SSE 30 37 16 20 1014.2 - -
17/02:00am 25.0 - - - - SSE 30 33 16 18 1014.2 1014.0 -
17/01:30am 25.0 - - - - SSE 30 35 16 19 1014.4 - -
17/01:00am 25.1 - - - - SSE 30 33 16 18 1014.6 1014.2 -
17/12:30am 25.1 - - - - SSE 30 33 16 18 1014.7 - -
17/12:00am 25.2 - - - - SSE 30 35 16 19 1015.0 1014.7 -
 
Date/Time
EST
Temp
°C
App
Temp
°C
Dew
Point
Rel
Hum
%
Delta-T
°C
Wind Press
QNH
hPa
Press
MSL
hPa
Rain
since 9 am
mm
Dir
 
Spd
km/h
Gust
km/h
Spd
kts
Gust
kts
16/11:30pm 25.2 - - - - SSE 32 35 17 19 1015.1 - -
16/11:00pm 25.4 - - - - SSE 30 35 16 19 1015.2 1014.8 -
16/10:30pm 25.4 - - - - SSE 30 35 16 19 1015.2 - -
16/10:00pm 25.2 - - - - SSE 30 35 16 19 1015.3 1015.0 -
16/09:30pm 25.2 - - - - SSE 30 35 16 19 1015.3 - -
16/09:00pm 25.2 - - - - SSE 32 35 17 19 1015.1 1014.9 -
16/08:30pm 25.5 - - - - SSE 28 33 15 18 1014.9 - -
16/08:00pm 25.3 - - - - SSE 32 39 17 21 1014.6 1014.4 -
16/07:30pm 25.4 - - - - SSE 35 39 19 21 1014.3 - -
16/07:00pm 25.4 - - - - SSE 35 39 19 21 1013.9 1013.7 -
16/06:30pm 25.3 - - - - SSE 32 37 17 20 1013.8 - -
16/06:00pm 25.4 - - - - SSE 32 41 17 22 1013.5 1013.2 -
16/05:30pm 25.2 - - - - SSE 32 39 17 21 1013.3 - -
16/05:00pm 25.2 - - - - SSE 33 37 18 20 1013.2 1012.9 -
16/04:30pm 25.5 - - - - SSE 32 39 17 21 1013.0 - -
16/04:00pm 25.2 - - - - S 32 35 17 19 1012.7 1012.6 -
16/03:30pm 25.2 - - - - S 32 39 17 21 1012.6 - -
16/03:00pm 25.2 - - - - S 32 35 17 19 1012.5 1012.2 -
16/02:30pm 25.1 - - - - SSE 28 32 15 17 1012.5 - -
16/02:00pm 25.3 - - - - SSE 26 30 14 16 1012.8 1012.4 -
16/01:30pm 25.2 - - - - S 24 30 13 16 1013.2 - -
16/01:00pm 25.3 - - - - S 24 30 13 16 1013.3 1013.1 -
16/12:30pm 25.4 - - - - SSE 26 30 14 16 1013.6 - -
16/12:00pm 25.3 - - - - SSE 26 30 14 16 1013.8 1013.4 -
16/11:30am 25.2 - - - - SSE 28 32 15 17 1014.0 - -
16/11:00am 25.4 - - - - S 28 30 15 16 1014.4 1014.0 -
16/10:30am 25.3 - - - - SSE 30 33 16 18 1014.6 - -
16/10:00am 25.4 - - - - SSE 28 33 15 18 1015.0 1014.7 -
16/09:30am 25.3 - - - - SSE 30 35 16 19 1015.1 - -
16/09:00am 25.3 - - - - SSE 28 32 15 17 1015.2 1014.9 -
16/08:30am 25.3 - - - - SSE 30 33 16 18 1015.0 - -
16/08:00am 25.2 - - - - SSE 30 35 16 19 1014.8 1014.5 -
16/07:30am 25.1 - - - - SSE 32 39 17 21 1014.5 - -
16/07:00am 25.1 - - - - SSE 32 37 17 20 1014.2 1013.9 -
16/06:30am 25.1 - - - - SSE 32 37 17 20 1013.8 - -
16/06:00am 24.9 - - - - SSE 32 35 17 19 1013.4 1013.2 -
16/05:30am 24.9 - - - - SSE 32 41 17 22 1013.2 - -
16/05:00am 25.0 - - - - SSE 32 37 17 20 1012.9 1012.6 -
16/04:30am 24.8 - - - - SSE 30 33 16 18 1012.8 - -
16/04:00am 25.0 - - - - S 30 35 16 19 1012.7 1012.4 -
16/03:30am 24.9 - - - - S 30 35 16 19 1012.5 - -
16/03:00am 25.2 - - - - S 30 35 16 19 1012.6 - -
16/02:30am 25.1 - - - - S 32 35 17 19 1012.7 - -
16/02:00am 25.1 - - - - S 32 35 17 19 1012.7 1012.4 -
16/01:30am 25.4 - - - - S 32 37 17 20 1013.0 - -
16/01:00am 25.5 - - - - S 32 37 17 20 1013.3 - -
16/12:30am 25.7 - - - - S 32 37 17 20 1013.6 - -
16/12:00am 25.5 - - - - S 35 41 19 22 1013.6 - -
 
Date/Time
EST
Temp
°C
App
Temp
°C
Dew
Point
Rel
Hum
%
Delta-T
°C
Wind Press
QNH
hPa
Press
MSL
hPa
Rain
since 9 am
mm
Dir
 
Spd
km/h
Gust
km/h
Spd
kts
Gust
kts
15/11:30pm 25.8 - - - - SSE 30 39 16 21 1013.8 - -
15/11:00pm 25.7 - - - - S 33 37 18 20 1013.8 1013.5 -
15/10:30pm 25.9 - - - - S 35 39 19 21 1013.9 - -
15/10:00pm 25.6 - - - - S 35 39 19 21 1013.8 1013.5 -
15/09:30pm 25.9 - - - - S 35 39 19 21 1013.6 - -
15/09:00pm 25.8 - - - - S 37 41 20 22 1013.3 - -
15/08:30pm 25.9 - - - - S 35 41 19 22 1013.1 - -
15/08:00pm 26.0 - - - - S 35 43 19 23 1012.8 1012.6 -
15/07:30pm 25.9 - - - - S 41 46 22 25 1012.3 - -
15/07:00pm 26.1 - - - - S 39 46 21 25 1011.9 1011.7 -
15/06:30pm 25.9 - - - - SSE 39 44 21 24 1011.5 - -
15/06:00pm 25.9 - - - - S 35 44 19 24 1011.1 1010.9 -
15/05:30pm 25.6 - - - - S 37 44 20 24 1010.8 - -
15/05:00pm 25.7 - - - - S 37 43 20 23 1010.6 1010.3 -
15/04:30pm 25.2 - - - - S 37 43 20 23 1010.3 - -
15/04:00pm 25.8 - - - - S 35 41 19 22 1010.0 1009.7 -
15/03:30pm 25.4 - - - - S 35 41 19 22 1009.9 - -
15/03:00pm 25.4 - - - - S 39 44 21 24 1009.7 1009.6 -
15/02:30pm 25.9 - - - - S 35 39 19 21 1009.7 - -
15/02:00pm 25.8 - - - - S 33 35 18 19 1010.0 1009.6 -
15/01:30pm 25.9 - - - - S 32 35 17 19 1010.3 - -
15/01:00pm 26.0 - - - - S 32 35 17 19 1010.4 1010.1 -
15/12:30pm 25.3 - - - - S 37 41 20 22 1010.6 - -
15/12:00pm 25.8 - - - - S 32 35 17 19 1010.9 1010.6 -
15/11:30am 25.8 - - - - S 32 35 17 19 1011.3 - -
15/11:00am 25.7 - - - - S 32 35 17 19 1011.6 1011.2 -
15/10:30am 25.6 - - - - S 30 35 16 19 1012.0 - -
15/10:00am 26.1 - - - - S 32 37 17 20 1012.0 1011.8 -
15/09:30am 25.7 - - - - S 30 35 16 19 1012.1 - -
15/09:00am 25.1 - - - - S 28 43 15 23 1012.2 1012.0 -
15/08:30am 24.0 - - - - S 33 41 18 22 1012.1 - -
15/08:00am 25.6 - - - - S 28 33 15 18 1011.7 1011.5 -
15/07:30am 25.4 - - - - S 33 39 18 21 1011.4 - -
15/07:00am 25.5 - - - - S 32 35 17 19 1011.2 1011.0 -
15/06:30am 25.4 - - - - S 30 33 16 18 1010.9 - -
15/06:00am 25.9 - - - - S 33 35 18 19 1010.4 1010.1 -
15/05:30am 25.9 - - - - SSW 33 39 18 21 1009.8 - -
15/05:00am 25.7 - - - - SSW 28 32 15 17 1009.7 1009.4 -
15/04:30am 25.6 - - - - SSW 28 32 15 17 1009.4 - -
15/04:00am 25.5 - - - - SSW 30 32 16 17 1009.2 1008.9 -
15/03:30am 25.4 - - - - SSW 32 35 17 19 1009.0 - -
15/03:00am 25.6 - - - - SSW 30 35 16 19 1009.1 1008.7 -
15/02:30am 25.2 - - - - SW 26 30 14 16 1009.1 - -
15/02:00am 25.3 - - - - SSW 32 35 17 19 1009.2 1008.8 -
15/01:30am 25.3 - - - - SW 30 35 16 19 1009.3 - -
15/01:00am 25.6 - - - - SW 28 35 15 19 1009.4 1009.0 -
15/12:30am 26.1 - - - - SSW 30 33 16 18 1009.6 - -
15/12:00am 25.8 - - - - SSW 30 41 16 22 1009.7 1009.4 -
 
Date/Time
EST
Temp
°C
App
Temp
°C
Dew
Point
Rel
Hum
%
Delta-T
°C
Wind Press
QNH
hPa
Press
MSL
hPa
Rain
since 9 am
mm
Dir
 
Spd
km/h
Gust
km/h
Spd
kts
Gust
kts
14/11:30pm 26.1 - - - - SW 33 35 18 19 1009.7 - -
14/11:00pm 26.0 - - - - SW 33 37 18 20 1009.7 1009.3 -
14/10:30pm 25.8 - - - - SW 32 37 17 20 1009.7 - -
14/10:00pm 25.6 - - - - SW 28 32 15 17 1009.6 1009.3 -
14/09:30pm 25.4 - - - - SW 32 43 17 23 1009.4 - -
14/09:00pm 25.2 - - - - WSW 32 35 17 19 1009.3 1009.0 -
14/08:30pm 25.8 - - - - WSW 28 32 15 17 1009.2 - -
14/08:00pm 25.8 - - - - WSW 33 39 18 21 1008.8 1008.6 -

Other Formats:

Comma delimited format used in spreadsheet applications
http://www.bom.gov.au/fwo/IDQ60801/IDQ60801.94393.axf

JavaScript Object Notation format (JSON) in row-major order
http://www.bom.gov.au/fwo/IDQ60801/IDQ60801.94393.json